createdAt,value
2019-04-14T00:02:22.798Z,19.97
2019-04-14T00:04:52.979Z,14.40
2019-04-14T00:07:23.059Z,17.87
2019-04-14T00:09:52.283Z,18.47
2019-04-14T00:12:21.495Z,16.70
2019-04-14T00:14:51.338Z,18.07
2019-04-14T00:17:21.627Z,17.87
2019-04-14T00:19:50.883Z,17.97
2019-04-14T00:22:20.564Z,18.40
2019-04-14T00:24:50.987Z,19.70
2019-04-14T00:27:21.449Z,21.20
2019-04-14T00:29:50.743Z,16.47
2019-04-14T00:32:20.509Z,16.20
2019-04-14T00:35:10.771Z,19.13
2019-04-14T00:38:02.398Z,15.73
2019-04-14T00:40:43.246Z,16.10
2019-04-14T00:43:37.453Z,14.67
2019-04-14T00:46:14.661Z,16.20
2019-04-14T00:48:45.143Z,12.93
2019-04-14T00:51:15.490Z,17.03
2019-04-14T00:53:44.931Z,14.00
2019-04-14T00:56:14.988Z,19.10
2019-04-14T00:58:45.350Z,17.47
2019-04-14T01:01:15.476Z,19.03
2019-04-14T01:03:45.855Z,17.23
2019-04-14T01:06:16.326Z,18.80
2019-04-14T01:08:46.712Z,17.90
2019-04-14T01:11:16.030Z,16.83
2019-04-14T01:13:46.191Z,20.73
2019-04-14T01:16:20.181Z,16.83
2019-04-14T01:18:47.307Z,15.73
2019-04-14T01:21:17.443Z,18.90
2019-04-14T01:23:47.933Z,18.57
2019-04-14T01:26:18.121Z,21.13
2019-04-14T01:28:48.321Z,24.30
2019-04-14T01:31:18.458Z,16.57
2019-04-14T01:33:49.010Z,19.27
2019-04-14T01:36:19.175Z,18.80
2019-04-14T01:38:49.264Z,19.50
2019-04-14T01:41:19.356Z,20.77
2019-04-14T01:43:49.622Z,18.20
2019-04-14T01:46:24.699Z,22.47
2019-04-14T01:48:49.831Z,19.37
2019-04-14T01:51:37.425Z,18.20
2019-04-14T01:54:29.871Z,22.33
2019-04-14T01:57:18.293Z,23.43
2019-04-14T01:59:48.261Z,21.30
2019-04-14T02:02:20.558Z,25.20
2019-04-14T02:04:50.714Z,22.80
2019-04-14T02:07:21.195Z,25.00
2019-04-14T02:09:51.077Z,26.43
2019-04-14T02:12:21.424Z,22.63
2019-04-14T02:14:51.628Z,22.10
2019-04-14T02:17:22.055Z,19.77
2019-04-14T02:19:52.380Z,20.17
2019-04-14T02:22:22.381Z,23.83
2019-04-14T02:24:52.716Z,22.23
2019-04-14T02:27:23.071Z,24.77
2019-04-14T02:29:53.747Z,29.17
2019-04-14T02:32:54.980Z,23.53
2019-04-14T02:35:22.786Z,27.30
2019-04-14T02:37:54.410Z,27.03
2019-04-14T02:40:27.382Z,27.53
2019-04-14T02:42:54.555Z,27.90
2019-04-14T02:45:26.757Z,28.17
2019-04-14T02:53:01.646Z,27.10
2019-04-14T02:55:21.237Z,23.83
2019-04-14T02:58:04.314Z,25.30
2019-04-14T03:00:31.731Z,25.37
2019-04-14T03:02:56.377Z,24.53
2019-04-14T03:08:03.997Z,26.07
2019-04-14T03:10:32.021Z,23.13
2019-04-14T03:13:09.243Z,25.63
2019-04-14T03:18:33.776Z,31.70
2019-04-14T03:21:21.266Z,20.17
2019-04-14T03:24:06.668Z,25.57
2019-04-14T03:26:42.024Z,26.87
2019-04-14T03:29:21.177Z,25.47
2019-04-14T03:37:31.072Z,27.93
2019-04-14T03:39:27.347Z,31.97
2019-04-14T03:41:58.224Z,27.47
2019-04-14T03:44:30.770Z,30.77
2019-04-14T03:47:02.938Z,23.97
2019-04-14T03:54:22.728Z,34.33
2019-04-14T03:56:51.212Z,23.20
2019-04-14T03:59:21.869Z,30.27
2019-04-14T04:01:52.237Z,29.90
2019-04-14T04:04:22.665Z,26.40
2019-04-14T04:06:53.055Z,36.03
2019-04-14T04:09:26.423Z,29.77
2019-04-14T04:11:56.338Z,27.93
2019-04-14T04:14:25.574Z,34.30
2019-04-14T04:17:04.122Z,34.17
2019-04-14T04:20:11.032Z,27.57
2019-04-14T04:22:59.302Z,28.63
2019-04-14T04:25:40.036Z,27.63
2019-04-14T04:28:25.623Z,37.37
2019-04-14T04:31:06.643Z,24.93
2019-04-14T04:33:54.467Z,35.07
2019-04-14T04:36:46.368Z,29.07
2019-04-14T04:39:19.872Z,27.90
2019-04-14T04:41:49.494Z,32.60
2019-04-14T04:44:20.129Z,29.87
2019-04-14T04:46:50.403Z,25.27
2019-04-14T04:49:24.072Z,22.70
2019-04-14T04:51:50.857Z,25.33
2019-04-14T04:54:21.068Z,28.30
2019-04-14T04:56:51.507Z,29.60
2019-04-14T04:59:21.265Z,30.20
2019-04-14T05:01:51.537Z,29.47
2019-04-14T05:04:22.008Z,25.93
2019-04-14T05:06:59.279Z,24.90
2019-04-14T05:09:47.514Z,25.63
2019-04-14T05:12:26.269Z,32.13
2019-04-14T05:15:05.337Z,25.97
2019-04-14T05:17:34.987Z,25.77
2019-04-14T05:20:05.216Z,28.53
2019-04-14T05:22:35.417Z,31.23
2019-04-14T05:25:05.757Z,24.60
2019-04-14T05:27:35.088Z,23.80
2019-04-14T05:30:04.711Z,26.57
2019-04-14T05:32:34.735Z,22.20
2019-04-14T05:35:05.234Z,27.03
2019-04-14T05:37:35.469Z,20.27
2019-04-14T05:40:05.890Z,26.03
2019-04-14T05:42:36.160Z,21.67
2019-04-14T05:45:06.610Z,29.87
2019-04-14T05:47:37.066Z,21.50
2019-04-14T05:50:07.411Z,27.10
2019-04-14T05:52:36.704Z,24.70
2019-04-14T05:55:07.074Z,21.73
2019-04-14T05:57:37.240Z,26.27
2019-04-14T06:00:10.367Z,26.07
2019-04-14T06:02:39.942Z,24.97
2019-04-14T06:05:11.278Z,24.63
2019-04-14T06:07:40.179Z,23.57
2019-04-14T06:10:09.468Z,21.10
2019-04-14T06:12:38.687Z,31.27
2019-04-14T06:15:07.940Z,30.17
2019-04-14T06:17:37.184Z,24.43
2019-04-14T06:20:06.980Z,23.23
2019-04-14T06:22:36.263Z,20.83
2019-04-14T06:25:06.920Z,23.13
2019-04-14T06:27:37.321Z,27.77
2019-04-14T06:30:27.420Z,24.40
2019-04-14T06:32:58.024Z,24.23
2019-04-14T06:35:32.710Z,22.03
2019-04-14T06:38:05.846Z,23.33
2019-04-14T06:40:54.371Z,20.60
2019-04-14T06:43:23.566Z,23.83
2019-04-14T06:45:52.776Z,17.77
2019-04-14T06:48:22.009Z,19.50
2019-04-14T06:50:51.231Z,19.00
2019-04-14T06:53:20.487Z,13.30
2019-04-14T06:55:49.748Z,14.40
2019-04-14T06:58:18.971Z,17.90
2019-04-14T07:00:48.148Z,19.73
2019-04-14T07:03:17.348Z,14.43
2019-04-14T07:05:46.556Z,16.40
2019-04-14T07:08:15.748Z,15.03
2019-04-14T07:10:44.960Z,14.43
2019-04-14T07:13:14.163Z,14.43
2019-04-14T07:15:43.343Z,12.77
2019-04-14T07:18:12.564Z,12.03
2019-04-14T07:20:41.835Z,14.27
2019-04-14T07:23:11.118Z,14.47
2019-04-14T07:25:40.372Z,14.33
2019-04-14T07:28:09.660Z,14.90
2019-04-14T07:30:44.845Z,16.17
2019-04-14T07:33:35.996Z,13.67
2019-04-14T07:36:27.344Z,16.67
2019-04-14T07:39:08.113Z,14.90
2019-04-14T07:41:44.261Z,15.03
2019-04-14T07:44:31.432Z,14.60
2019-04-14T07:47:20.175Z,15.93
2019-04-14T07:49:55.551Z,13.03
2019-04-14T07:52:36.440Z,13.10
2019-04-14T07:55:24.003Z,12.27
2019-04-14T07:58:03.635Z,14.87
2019-04-14T08:00:40.331Z,14.20
2019-04-14T08:03:14.227Z,13.00
2019-04-14T08:05:43.491Z,16.47
2019-04-14T08:08:12.679Z,17.40
2019-04-14T08:10:41.964Z,14.13
2019-04-14T08:13:11.164Z,14.27
2019-04-14T08:15:40.349Z,13.33
2019-04-14T08:18:09.591Z,13.10
2019-04-14T08:20:38.784Z,15.13
2019-04-14T08:23:08.000Z,12.77
2019-04-14T08:25:37.229Z,16.37
2019-04-14T08:28:06.427Z,13.33
2019-04-14T08:30:35.643Z,12.60
2019-04-14T08:33:04.835Z,12.07
2019-04-14T08:35:34.199Z,11.53
2019-04-14T08:38:03.432Z,12.00
2019-04-14T08:40:32.744Z,13.70
2019-04-14T08:43:23.788Z,11.90
2019-04-14T08:46:10.676Z,10.83
2019-04-14T08:48:49.104Z,14.20
2019-04-14T08:51:33.204Z,10.30
2019-04-14T08:54:14.984Z,13.30
2019-04-14T08:56:50.530Z,12.63
2019-04-14T08:59:37.348Z,13.57
2019-04-14T09:02:14.356Z,10.73
2019-04-14T09:05:14.904Z,13.40
2019-04-14T09:07:50.380Z,10.47
2019-04-14T09:10:25.839Z,12.73
2019-04-14T09:12:56.763Z,15.67
2019-04-14T09:15:26.062Z,16.87
2019-04-14T09:17:55.239Z,14.47
2019-04-14T09:20:24.456Z,14.97
2019-04-14T09:22:53.643Z,15.33
2019-04-14T09:25:22.837Z,11.67
2019-04-14T09:27:52.063Z,12.17
2019-04-14T09:30:21.339Z,13.37
2019-04-14T09:32:50.579Z,11.37
2019-04-14T09:35:19.756Z,10.77
2019-04-14T09:37:48.973Z,13.60
2019-04-14T09:40:18.293Z,11.30
2019-04-14T09:42:47.511Z,12.70
2019-04-14T09:45:16.720Z,15.20
2019-04-14T09:47:45.944Z,12.60
2019-04-14T09:50:15.167Z,13.03
2019-04-14T09:52:44.336Z,13.50
2019-04-14T09:55:13.668Z,12.70
2019-04-14T09:57:42.885Z,13.87
2019-04-14T10:00:14.284Z,9.30
2019-04-14T10:02:43.495Z,15.60
2019-04-14T10:05:12.861Z,12.97
2019-04-14T10:07:42.043Z,13.13
2019-04-14T10:10:11.275Z,13.43
2019-04-14T10:12:40.558Z,11.83
2019-04-14T10:15:10.662Z,11.93
2019-04-14T10:17:39.849Z,8.47
2019-04-14T10:20:09.635Z,11.63
2019-04-14T10:22:38.854Z,12.17
2019-04-14T10:25:08.059Z,13.67
2019-04-14T10:27:37.272Z,12.23
2019-04-14T10:30:06.988Z,19.13
2019-04-14T10:32:36.185Z,14.17
2019-04-14T10:35:05.680Z,16.17
2019-04-14T10:37:34.971Z,11.30
2019-04-14T10:40:06.089Z,12.73
2019-04-14T10:42:35.461Z,10.77
2019-04-14T10:45:05.027Z,10.77
2019-04-14T10:47:34.299Z,14.97
2019-04-14T10:50:03.527Z,12.33
2019-04-14T10:52:32.808Z,11.03
2019-04-14T10:55:02.040Z,15.13
2019-04-14T10:57:31.271Z,13.73
2019-04-14T11:00:00.528Z,14.73
2019-04-14T11:02:29.747Z,16.33
2019-04-14T11:04:59.036Z,12.47
2019-04-14T11:07:30.035Z,10.50
2019-04-14T11:09:59.270Z,14.60
2019-04-14T11:12:28.452Z,13.23
2019-04-14T11:14:57.697Z,18.17
2019-04-14T11:17:26.940Z,14.00
2019-04-14T11:19:56.167Z,22.47
2019-04-14T11:22:25.382Z,18.50
2019-04-14T11:24:57.455Z,14.30
2019-04-14T11:27:26.644Z,13.90
2019-04-14T11:29:55.973Z,12.77
2019-04-14T11:32:44.223Z,13.13
2019-04-14T11:35:18.642Z,16.30
2019-04-14T11:38:05.500Z,16.50
2019-04-14T11:40:40.095Z,13.07
2019-04-14T11:43:09.331Z,17.30
2019-04-14T11:45:38.574Z,14.23
2019-04-14T11:48:07.804Z,15.67
2019-04-14T11:50:37.080Z,13.20
2019-04-14T11:53:06.358Z,13.37
2019-04-14T11:55:35.672Z,14.07
2019-04-14T11:58:04.865Z,14.67
2019-04-14T12:01:05.240Z,15.27
2019-04-14T12:03:56.240Z,12.33
2019-04-14T12:06:43.324Z,11.43
2019-04-14T12:09:16.165Z,10.97
2019-04-14T12:11:45.466Z,14.20
2019-04-14T12:14:14.671Z,15.43
2019-04-14T12:16:43.892Z,15.93
2019-04-14T12:19:13.083Z,17.00
2019-04-14T12:21:42.332Z,17.03
2019-04-14T12:24:11.544Z,14.37
2019-04-14T12:26:40.963Z,13.67
2019-04-14T12:29:10.253Z,15.07
2019-04-14T12:31:39.951Z,13.20
2019-04-14T12:34:09.275Z,13.47
2019-04-14T12:36:38.475Z,15.03
2019-04-14T12:39:15.535Z,12.83
2019-04-14T12:41:49.820Z,14.33
2019-04-14T12:44:41.172Z,13.20
2019-04-14T12:47:20.715Z,14.00
2019-04-14T12:49:50.880Z,15.63
2019-04-14T12:52:25.103Z,10.50
2019-04-14T12:54:54.427Z,11.27
2019-04-14T12:57:32.011Z,10.80
2019-04-14T13:00:01.305Z,11.57
2019-04-14T13:02:36.387Z,14.27
2019-04-14T13:05:05.902Z,11.97
2019-04-14T13:07:36.867Z,10.70
2019-04-14T13:10:07.418Z,10.13
2019-04-14T13:12:36.688Z,10.60
2019-04-14T13:15:06.688Z,11.93
2019-04-14T13:17:35.964Z,13.70
2019-04-14T13:20:05.854Z,12.83
2019-04-14T13:22:35.088Z,13.43
2019-04-14T13:25:04.826Z,12.80
2019-04-14T13:27:34.008Z,14.33
2019-04-14T13:30:03.467Z,11.83
2019-04-14T13:32:36.281Z,12.57
2019-04-14T13:35:03.531Z,14.37
2019-04-14T13:37:32.759Z,14.57
2019-04-14T13:40:02.036Z,14.37
2019-04-14T13:42:31.236Z,13.57
2019-04-14T13:45:00.456Z,14.90
2019-04-14T13:47:29.641Z,15.20
2019-04-14T13:49:58.830Z,13.97
2019-04-14T13:52:30.776Z,14.00
2019-04-14T13:54:58.928Z,13.87
2019-04-14T13:57:28.223Z,14.67
2019-04-14T13:59:57.404Z,15.50
2019-04-14T14:02:26.704Z,13.20
2019-04-14T14:04:55.889Z,12.33
2019-04-14T14:07:25.112Z,16.30
2019-04-14T14:09:57.017Z,17.23
2019-04-14T14:12:33.245Z,15.73
2019-04-14T14:15:14.444Z,17.07
2019-04-14T14:17:48.611Z,19.93
2019-04-14T14:20:24.777Z,15.07
2019-04-14T14:23:18.824Z,18.50
2019-04-14T14:25:51.582Z,20.37
2019-04-14T14:28:20.834Z,18.33
2019-04-14T14:30:50.028Z,16.93
2019-04-14T14:33:19.231Z,14.47
2019-04-14T14:35:48.417Z,16.33
2019-04-14T14:38:17.776Z,15.47
2019-04-14T14:40:49.151Z,16.23
2019-04-14T14:43:17.981Z,19.50
2019-04-14T14:46:00.548Z,15.50
2019-04-14T14:48:40.600Z,16.17
2019-04-14T14:51:41.004Z,16.83
2019-04-14T14:54:10.223Z,15.23
2019-04-14T14:56:39.425Z,18.13
2019-04-14T14:59:08.771Z,15.43
2019-04-14T15:01:38.060Z,15.17
2019-04-14T15:04:07.300Z,15.13
2019-04-14T15:06:36.589Z,17.67
2019-04-14T15:09:06.960Z,22.57
2019-04-14T15:11:36.247Z,17.20
2019-04-14T15:14:06.634Z,14.10
2019-04-14T15:16:36.044Z,17.67
2019-04-14T15:19:05.505Z,20.23
2019-04-14T15:21:34.705Z,14.67
2019-04-14T15:24:04.079Z,22.23
2019-04-14T15:26:33.296Z,22.73
2019-04-14T15:29:02.571Z,19.60
2019-04-14T15:31:31.779Z,21.20
2019-04-14T15:34:00.993Z,19.93
2019-04-14T15:36:30.200Z,17.73
2019-04-14T15:38:59.423Z,20.93
2019-04-14T15:41:28.628Z,18.00
2019-04-14T15:43:57.987Z,21.83
2019-04-14T15:46:27.179Z,19.93
2019-04-14T15:48:56.418Z,19.07
2019-04-14T15:51:25.606Z,14.70
2019-04-14T15:53:54.855Z,21.13
2019-04-14T15:56:34.860Z,18.07
2019-04-14T15:59:09.009Z,17.60
2019-04-14T16:01:51.328Z,17.67
2019-04-14T16:04:28.510Z,20.70
2019-04-14T16:07:15.688Z,17.47
2019-04-14T16:10:03.998Z,15.47
2019-04-14T16:13:04.562Z,22.27
2019-04-14T16:15:58.912Z,18.27
2019-04-14T16:18:44.480Z,18.80
2019-04-14T16:21:13.701Z,13.90
2019-04-14T16:23:50.392Z,17.53
2019-04-14T16:26:25.463Z,16.57
2019-04-14T16:29:02.833Z,17.07
2019-04-14T16:31:51.271Z,16.50
2019-04-14T16:34:23.683Z,19.60
2019-04-14T16:36:52.911Z,12.73
2019-04-14T16:39:22.148Z,14.07
2019-04-14T16:41:51.438Z,13.90
2019-04-14T16:44:20.667Z,15.23
2019-04-14T16:46:49.959Z,14.50
2019-04-14T16:49:19.159Z,17.47
2019-04-14T16:51:55.448Z,14.90
2019-04-14T16:54:34.076Z,14.97
2019-04-14T16:57:32.442Z,12.77
2019-04-14T17:00:02.665Z,11.90
2019-04-14T17:02:31.896Z,13.73
2019-04-14T17:05:01.120Z,12.53
2019-04-14T17:07:30.400Z,16.10
2019-04-14T17:09:59.629Z,17.10
2019-04-14T17:12:28.968Z,14.07
2019-04-14T17:15:05.044Z,15.23
2019-04-14T17:18:05.484Z,12.70
2019-04-14T17:21:09.219Z,12.20
2019-04-14T17:24:16.875Z,16.30
2019-04-14T17:26:47.212Z,15.00
2019-04-14T17:29:20.772Z,11.97
2019-04-14T17:32:05.404Z,14.33
2019-04-14T17:34:53.671Z,12.43
2019-04-14T17:37:51.825Z,8.63
2019-04-14T17:40:41.092Z,13.67
2019-04-14T17:43:17.977Z,13.73
2019-04-14T17:46:10.231Z,10.07
2019-04-14T17:48:57.280Z,7.67
2019-04-14T17:51:33.147Z,10.60
2019-04-14T17:54:14.116Z,14.23
2019-04-14T17:56:49.528Z,16.33
2019-04-14T17:59:32.511Z,12.80
2019-04-14T18:02:05.892Z,11.60
2019-04-14T18:04:41.176Z,15.13
2019-04-14T18:07:17.911Z,14.13
2019-04-14T18:09:56.516Z,16.00
2019-04-14T18:12:38.747Z,11.57
2019-04-14T18:15:26.779Z,12.00
2019-04-14T18:18:24.080Z,13.57
2019-04-14T18:20:56.558Z,13.17
2019-04-14T18:23:26.007Z,13.17
2019-04-14T18:25:55.273Z,11.47
2019-04-14T18:28:53.210Z,16.97
2019-04-14T18:31:44.786Z,11.60
2019-04-14T18:34:38.880Z,12.17
2019-04-14T18:37:29.886Z,13.80
2019-04-14T18:40:11.718Z,17.03
2019-04-14T18:42:53.777Z,12.33
2019-04-14T18:45:32.884Z,14.73
2019-04-14T18:48:16.885Z,16.60
2019-04-14T18:51:08.376Z,12.53
2019-04-14T18:53:50.032Z,14.33
2019-04-14T18:56:50.526Z,13.07
2019-04-14T18:59:44.857Z,13.57
2019-04-14T19:02:16.052Z,12.70
2019-04-14T19:04:45.285Z,13.50
2019-04-14T19:07:14.487Z,12.20
2019-04-14T19:09:43.786Z,14.93
2019-04-14T19:12:40.867Z,13.17
2019-04-14T19:15:19.440Z,14.20
2019-04-14T19:17:58.226Z,12.70
2019-04-14T19:20:27.661Z,16.10
2019-04-14T19:22:56.844Z,16.67
2019-04-14T19:25:26.056Z,14.13
2019-04-14T19:27:55.895Z,14.73
2019-04-14T19:30:25.312Z,16.57
2019-04-14T19:32:54.630Z,14.83
2019-04-14T19:35:26.746Z,19.10
2019-04-14T19:37:54.863Z,12.87
2019-04-14T19:40:24.392Z,18.90
2019-04-14T19:42:53.902Z,14.73
2019-04-14T19:45:23.187Z,10.90
2019-04-14T19:47:52.368Z,13.83
2019-04-14T19:50:21.603Z,21.93
2019-04-14T19:52:51.687Z,12.97
2019-04-14T19:55:20.987Z,13.80
2019-04-14T19:57:50.183Z,15.97
2019-04-14T20:00:19.638Z,14.60
2019-04-14T20:02:48.847Z,14.00
2019-04-14T20:05:18.056Z,12.83
2019-04-14T20:07:47.284Z,14.63
2019-04-14T20:10:16.483Z,10.67
2019-04-14T20:12:45.709Z,13.60
2019-04-14T20:15:18.055Z,13.23
2019-04-14T20:18:12.210Z,12.27
2019-04-14T20:20:58.129Z,14.50
2019-04-14T20:23:32.468Z,11.77
2019-04-14T20:26:29.727Z,12.83
2019-04-14T20:29:27.112Z,14.83
2019-04-14T20:32:00.407Z,13.37
2019-04-14T20:34:29.646Z,13.13
2019-04-14T20:36:58.876Z,14.10
2019-04-14T20:39:29.379Z,17.93
2019-04-14T20:41:58.631Z,9.97
2019-04-14T20:44:27.935Z,11.37
2019-04-14T20:46:57.151Z,14.03
2019-04-14T20:49:26.383Z,11.30
2019-04-14T20:51:55.575Z,11.77
2019-04-14T20:54:24.779Z,9.80
2019-04-14T20:56:54.029Z,11.63
2019-04-14T20:59:23.208Z,10.23
2019-04-14T21:01:58.731Z,15.87
2019-04-14T21:04:48.652Z,12.23
2019-04-14T21:07:28.315Z,10.40
2019-04-14T21:10:19.348Z,10.87
2019-04-14T21:12:54.490Z,11.63
2019-04-14T21:15:54.784Z,12.07
2019-04-14T21:18:41.820Z,11.07
2019-04-14T21:21:30.267Z,11.53
2019-04-14T21:24:21.527Z,9.10
2019-04-14T21:27:09.793Z,10.53
2019-04-14T21:30:02.060Z,10.27
2019-04-14T21:32:38.763Z,9.80
2019-04-14T21:35:15.644Z,7.17
2019-04-14T21:37:59.993Z,9.90
2019-04-14T21:40:45.611Z,10.10
2019-04-14T21:43:14.940Z,14.07
2019-04-14T21:45:44.254Z,9.63
2019-04-14T21:48:13.503Z,10.27
2019-04-14T21:50:42.732Z,7.13
2019-04-14T21:53:11.936Z,11.23
2019-04-14T21:55:41.123Z,13.57
2019-04-14T21:58:35.315Z,10.30
2019-04-14T22:01:49.668Z,7.37
2019-04-14T22:04:36.536Z,7.63
2019-04-14T22:07:18.260Z,9.30
2019-04-14T22:09:47.513Z,6.67
2019-04-14T22:12:16.756Z,7.20
2019-04-14T22:14:46.044Z,8.57
2019-04-14T22:17:15.412Z,6.63
2019-04-14T22:19:44.595Z,6.63
2019-04-14T22:22:13.775Z,5.77
2019-04-14T22:24:43.160Z,7.73
2019-04-14T22:27:12.424Z,8.23
2019-04-14T22:29:41.633Z,6.13
2019-04-14T22:32:10.852Z,4.57
2019-04-14T22:34:40.019Z,11.37
2019-04-14T22:37:09.248Z,4.67
2019-04-14T22:39:39.389Z,5.37
2019-04-14T22:42:08.724Z,5.60
2019-04-14T22:44:37.935Z,7.03
2019-04-14T22:47:07.127Z,5.70
2019-04-14T22:49:36.436Z,4.50
2019-04-14T22:52:06.003Z,5.73
2019-04-14T22:54:35.225Z,5.63
2019-04-14T22:57:04.499Z,6.00
2019-04-14T22:59:33.800Z,6.87
2019-04-14T23:02:09.271Z,6.40
2019-04-14T23:04:45.311Z,7.33
2019-04-14T23:07:28.241Z,6.90
2019-04-14T23:10:15.143Z,2.93
2019-04-14T23:13:02.237Z,8.40
2019-04-14T23:15:54.538Z,6.80
2019-04-14T23:18:28.585Z,6.53
2019-04-14T23:21:32.265Z,5.13
2019-04-14T23:24:13.316Z,5.37
2019-04-14T23:26:52.401Z,6.67
2019-04-14T23:29:13.404Z,9.00
2019-04-14T23:31:42.667Z,5.63
2019-04-14T23:34:11.982Z,5.57
2019-04-14T23:36:41.159Z,6.43
2019-04-14T23:39:12.695Z,5.17
2019-04-14T23:41:41.935Z,6.37
2019-04-14T23:44:11.107Z,5.73
2019-04-14T23:46:40.323Z,7.40
2019-04-14T23:49:09.503Z,7.33
2019-04-14T23:51:38.740Z,7.43
2019-04-14T23:54:07.953Z,4.77
2019-04-14T23:56:37.151Z,6.07
2019-04-14T23:59:06.347Z,6.57
